createdAt,value
2023-02-26T00:00:29.701Z,47.30
2023-02-26T00:02:59.324Z,46.60
2023-02-26T00:05:27.654Z,46.40
2023-02-26T00:07:55.851Z,46.20
2023-02-26T00:10:24.249Z,46.10
2023-02-26T00:12:52.869Z,45.90
2023-02-26T00:15:21.917Z,46.10
2023-02-26T00:17:52.438Z,46.60
2023-02-26T00:20:22.387Z,47.00
2023-02-26T00:22:50.967Z,47.20
2023-02-26T00:25:19.144Z,47.30
2023-02-26T00:27:47.732Z,47.00
2023-02-26T00:30:16.293Z,46.70
2023-02-26T00:32:44.813Z,46.60
2023-02-26T00:35:14.681Z,46.40
2023-02-26T00:37:56.376Z,46.30
2023-02-26T00:40:27.972Z,46.10
2023-02-26T00:42:56.468Z,45.90
2023-02-26T00:45:25.090Z,46.00
2023-02-26T00:47:55.776Z,46.50
2023-02-26T00:50:25.111Z,46.90
2023-02-26T00:53:01.420Z,47.60
2023-02-26T00:55:29.610Z,47.20
2023-02-26T00:57:57.791Z,46.90
2023-02-26T01:00:25.902Z,46.70
2023-02-26T01:02:54.391Z,46.60
2023-02-26T01:05:22.934Z,46.30
2023-02-26T01:07:55.018Z,46.20
2023-02-26T01:10:25.246Z,46.10
2023-02-26T01:12:53.738Z,45.80
2023-02-26T01:15:22.391Z,45.70
2023-02-26T01:17:53.048Z,46.20
2023-02-26T01:20:22.153Z,46.80
2023-02-26T01:22:53.705Z,46.90
2023-02-26T01:25:26.049Z,47.20
2023-02-26T01:27:56.374Z,47.10
2023-02-26T01:30:25.873Z,46.90
2023-02-26T01:32:56.214Z,46.70
2023-02-26T01:35:38.646Z,46.60
2023-02-26T01:38:11.529Z,46.30
2023-02-26T01:41:21.641Z,46.20
2023-02-26T01:43:55.401Z,46.10
2023-02-26T01:46:24.472Z,46.00
2023-02-26T01:48:53.493Z,46.60
2023-02-26T01:51:42.781Z,46.80
2023-02-26T01:54:10.785Z,47.10
2023-02-26T01:56:38.925Z,47.50
2023-02-26T01:59:08.678Z,47.90
2023-02-26T02:01:37.631Z,49.20
2023-02-26T02:04:05.826Z,50.50
2023-02-26T02:06:33.985Z,52.40
2023-02-26T02:09:02.237Z,52.50
2023-02-26T02:11:30.292Z,52.20
2023-02-26T02:14:04.339Z,51.90
2023-02-26T02:16:39.044Z,51.70
2023-02-26T02:19:17.169Z,51.30
2023-02-26T02:21:57.814Z,51.20
2023-02-26T02:24:30.082Z,51.50
2023-02-26T02:27:03.519Z,51.80
2023-02-26T02:29:55.859Z,52.10
2023-02-26T02:32:27.397Z,52.30
2023-02-26T02:34:58.571Z,51.90
2023-02-26T02:37:28.736Z,51.80
2023-02-26T02:39:58.714Z,51.70
2023-02-26T02:42:28.036Z,51.50
2023-02-26T02:44:58.619Z,51.30
2023-02-26T02:47:28.231Z,51.20
2023-02-26T02:49:59.352Z,51.00
2023-02-26T02:52:29.675Z,50.90
2023-02-26T02:54:59.426Z,51.30
2023-02-26T02:57:28.832Z,51.70
2023-02-26T02:59:58.620Z,52.00
2023-02-26T03:02:31.098Z,52.20
2023-02-26T03:04:59.156Z,52.10
2023-02-26T03:07:27.142Z,52.10
2023-02-26T03:09:55.769Z,52.30
2023-02-26T03:12:23.775Z,52.20
2023-02-26T03:14:51.788Z,52.20
2023-02-26T03:17:21.980Z,52.20
2023-02-26T03:19:59.248Z,52.20
2023-02-26T03:22:30.469Z,52.10
2023-02-26T03:25:01.733Z,52.80
2023-02-26T03:27:32.492Z,53.40
2023-02-26T03:30:01.776Z,53.00
2023-02-26T03:32:31.006Z,53.40
2023-02-26T03:35:03.045Z,53.40
2023-02-26T03:37:33.203Z,55.90
2023-02-26T03:40:05.020Z,36.30
2023-02-26T03:42:35.467Z,36.20
2023-02-26T03:45:06.044Z,36.00
2023-02-26T03:47:34.026Z,35.90
2023-02-26T03:50:05.933Z,35.70
2023-02-26T03:52:35.514Z,35.60
2023-02-26T03:55:05.732Z,35.70
2023-02-26T03:57:33.778Z,36.20
2023-02-26T04:00:01.807Z,36.60
2023-02-26T04:02:31.924Z,36.80
2023-02-26T04:05:02.742Z,37.00
2023-02-26T04:07:32.112Z,37.30
2023-02-26T04:10:00.139Z,37.30
2023-02-26T04:12:29.006Z,37.00
2023-02-26T04:14:57.086Z,36.80
2023-02-26T04:17:25.085Z,36.50
2023-02-26T04:19:53.136Z,36.30
2023-02-26T04:22:21.152Z,36.20
2023-02-26T04:24:50.496Z,36.00
2023-02-26T04:27:18.482Z,35.90
2023-02-26T04:29:46.429Z,35.80
2023-02-26T04:32:14.560Z,36.20
2023-02-26T04:34:42.670Z,36.60
2023-02-26T04:37:11.004Z,36.80
2023-02-26T04:39:38.980Z,37.10
2023-02-26T04:42:08.378Z,36.90
2023-02-26T04:44:36.380Z,37.10
2023-02-26T04:47:04.442Z,36.40
2023-02-26T04:49:32.511Z,36.20
2023-02-26T04:52:00.551Z,36.10
2023-02-26T04:54:28.615Z,36.00
2023-02-26T04:56:56.998Z,35.80
2023-02-26T04:59:26.359Z,35.70
2023-02-26T05:01:54.410Z,35.90
2023-02-26T05:04:22.474Z,36.30
2023-02-26T05:06:50.557Z,36.70
2023-02-26T05:09:18.647Z,37.00
2023-02-26T05:11:46.650Z,37.00
2023-02-26T05:14:14.640Z,36.50
2023-02-26T05:16:44.192Z,36.30
2023-02-26T05:19:12.264Z,36.30
2023-02-26T05:21:40.443Z,36.00
2023-02-26T05:24:09.018Z,35.90
2023-02-26T05:26:37.259Z,35.80
2023-02-26T05:29:05.276Z,35.70
2023-02-26T05:31:33.355Z,35.60
2023-02-26T05:34:02.814Z,36.20
2023-02-26T05:36:30.828Z,36.50
2023-02-26T05:38:58.837Z,36.70
2023-02-26T05:41:26.857Z,37.00
2023-02-26T05:43:54.844Z,36.60
2023-02-26T05:46:23.115Z,36.40
2023-02-26T05:48:51.229Z,36.20
2023-02-26T05:51:20.604Z,36.00
2023-02-26T05:53:48.770Z,35.90
2023-02-26T05:56:17.901Z,35.90
2023-02-26T05:58:46.037Z,35.60
2023-02-26T06:01:14.181Z,35.50
2023-02-26T06:03:44.277Z,35.90
2023-02-26T06:06:12.310Z,36.30
2023-02-26T06:08:41.679Z,36.50
2023-02-26T06:11:09.697Z,36.70
2023-02-26T06:13:37.739Z,37.00
2023-02-26T06:16:06.291Z,37.30
2023-02-26T06:18:34.302Z,37.20
2023-02-26T06:21:02.341Z,36.70
2023-02-26T06:23:30.348Z,36.60
2023-02-26T06:26:00.096Z,36.30
2023-02-26T06:28:28.094Z,36.10
2023-02-26T06:30:56.183Z,36.10
2023-02-26T06:33:24.267Z,35.90
2023-02-26T06:35:52.268Z,35.80
2023-02-26T06:38:20.337Z,35.80
2023-02-26T06:40:48.548Z,36.30
2023-02-26T06:43:17.901Z,36.70
2023-02-26T06:45:46.393Z,36.90
2023-02-26T06:48:14.473Z,37.00
2023-02-26T06:50:42.488Z,36.60
2023-02-26T06:53:10.545Z,36.40
2023-02-26T06:55:43.073Z,36.30
2023-02-26T06:58:11.229Z,36.10
2023-02-26T07:00:41.585Z,36.00
2023-02-26T07:03:11.060Z,35.70
2023-02-26T07:05:39.039Z,35.60
2023-02-26T07:08:07.225Z,35.50
2023-02-26T07:10:35.458Z,36.00
2023-02-26T07:13:03.508Z,36.40
2023-02-26T07:15:31.984Z,36.70
2023-02-26T07:18:01.399Z,36.90
2023-02-26T07:20:30.622Z,36.70
2023-02-26T07:22:58.661Z,36.40
2023-02-26T07:25:26.795Z,36.20
2023-02-26T07:27:56.391Z,36.10
2023-02-26T07:30:24.444Z,35.90
2023-02-26T07:32:52.506Z,35.80
2023-02-26T07:35:22.048Z,35.60
2023-02-26T07:37:50.030Z,35.40
2023-02-26T07:40:18.260Z,35.80
2023-02-26T07:42:46.227Z,36.30
2023-02-26T07:45:14.515Z,36.70
2023-02-26T07:47:42.500Z,36.80
2023-02-26T07:50:12.060Z,36.70
2023-02-26T07:52:41.811Z,36.40
2023-02-26T07:55:10.989Z,36.20
2023-02-26T07:57:38.982Z,36.10
2023-02-26T08:00:09.805Z,35.90
2023-02-26T08:02:37.908Z,35.80
2023-02-26T08:05:06.389Z,35.50
2023-02-26T08:07:34.417Z,35.50
2023-02-26T08:10:04.440Z,35.40
2023-02-26T08:12:33.050Z,36.00
2023-02-26T08:15:01.042Z,37.00
2023-02-26T08:17:29.062Z,36.70
2023-02-26T08:19:57.087Z,36.90
2023-02-26T08:22:25.496Z,37.10
2023-02-26T08:24:53.502Z,37.30
2023-02-26T08:27:22.850Z,36.90
2023-02-26T08:29:51.262Z,36.60
2023-02-26T08:32:19.969Z,36.30
2023-02-26T08:34:48.194Z,36.10
2023-02-26T08:37:16.236Z,36.00
2023-02-26T08:39:44.274Z,35.90
2023-02-26T08:42:12.416Z,35.80
2023-02-26T08:44:41.813Z,35.50
2023-02-26T08:47:09.855Z,35.90
2023-02-26T08:49:37.864Z,36.40
2023-02-26T08:52:06.122Z,36.80
2023-02-26T08:54:34.159Z,37.00
2023-02-26T08:57:02.152Z,36.70
2023-02-26T08:59:30.222Z,36.40
2023-02-26T09:01:59.608Z,36.10
2023-02-26T09:04:30.901Z,36.00
2023-02-26T09:06:59.222Z,35.80
2023-02-26T09:09:27.213Z,35.70
2023-02-26T09:11:55.208Z,35.50
2023-02-26T09:14:23.728Z,35.40
2023-02-26T09:16:51.717Z,35.80
2023-02-26T09:19:21.609Z,36.10
2023-02-26T09:21:49.849Z,36.50
2023-02-26T09:24:18.007Z,36.80
2023-02-26T09:26:46.094Z,36.80
2023-02-26T09:29:14.541Z,36.30
2023-02-26T09:31:42.664Z,36.10
2023-02-26T09:34:11.617Z,35.90
2023-02-26T09:36:41.138Z,35.80
2023-02-26T09:39:09.744Z,36.30
2023-02-26T09:41:39.237Z,35.50
2023-02-26T09:44:22.317Z,35.40
2023-02-26T09:46:55.104Z,35.50
2023-02-26T09:49:29.749Z,36.00
2023-02-26T09:52:01.702Z,36.30
2023-02-26T09:54:31.304Z,36.80
2023-02-26T09:57:00.403Z,37.10
2023-02-26T09:59:31.315Z,36.40
2023-02-26T10:02:01.095Z,36.20
2023-02-26T10:04:41.481Z,36.00
2023-02-26T10:07:17.667Z,35.80
2023-02-26T10:09:54.377Z,35.70
2023-02-26T10:12:23.750Z,35.60
2023-02-26T10:14:53.965Z,35.40
2023-02-26T10:17:24.345Z,35.50
2023-02-26T10:19:54.093Z,36.00
2023-02-26T10:22:26.624Z,36.30
2023-02-26T10:24:57.909Z,36.70
2023-02-26T10:27:30.052Z,37.10
2023-02-26T10:30:00.121Z,37.30
2023-02-26T10:32:32.204Z,37.30
2023-02-26T10:35:01.892Z,36.80
2023-02-26T10:37:37.663Z,36.50
2023-02-26T10:40:10.725Z,36.30
2023-02-26T10:42:41.551Z,36.10
2023-02-26T10:45:16.794Z,35.90
2023-02-26T10:47:48.603Z,35.80
2023-02-26T10:50:17.540Z,35.60
2023-02-26T10:52:46.953Z,35.50
2023-02-26T10:55:31.737Z,36.00
2023-02-26T10:58:05.321Z,36.30
2023-02-26T11:00:35.248Z,36.70
2023-02-26T11:03:03.936Z,37.10
2023-02-26T11:05:32.878Z,36.60
2023-02-26T11:08:03.742Z,36.40
2023-02-26T11:10:40.204Z,36.20
2023-02-26T11:13:08.188Z,35.90
2023-02-26T11:15:36.210Z,35.80
2023-02-26T11:18:04.405Z,35.60
2023-02-26T11:20:35.907Z,35.50
2023-02-26T11:23:09.079Z,35.50
2023-02-26T11:25:37.399Z,35.90
2023-02-26T11:28:06.849Z,36.20
2023-02-26T11:30:37.808Z,36.30
2023-02-26T11:33:13.872Z,37.00
2023-02-26T11:35:41.904Z,36.60
2023-02-26T11:38:17.386Z,36.30
2023-02-26T11:40:47.948Z,36.10
2023-02-26T11:43:18.066Z,35.90
2023-02-26T11:45:47.491Z,35.70
2023-02-26T11:48:17.306Z,35.50
2023-02-26T11:50:46.947Z,35.50
2023-02-26T11:53:21.444Z,35.40
2023-02-26T11:55:53.323Z,35.70
2023-02-26T11:58:22.793Z,36.10
2023-02-26T12:00:51.009Z,36.40
2023-02-26T12:03:20.741Z,36.90
2023-02-26T12:05:48.752Z,36.90
2023-02-26T12:08:21.467Z,36.30
2023-02-26T12:10:54.238Z,36.20
2023-02-26T12:13:26.409Z,36.00
2023-02-26T12:15:57.752Z,35.80
2023-02-26T12:18:44.579Z,35.60
2023-02-26T12:21:25.270Z,35.50
2023-02-26T12:24:17.803Z,35.40
2023-02-26T12:26:48.611Z,35.70
2023-02-26T12:29:28.045Z,36.10
2023-02-26T12:32:30.116Z,36.50
2023-02-26T12:35:16.626Z,36.90
2023-02-26T12:37:51.476Z,37.40
2023-02-26T12:40:31.216Z,37.40
2023-02-26T12:43:02.301Z,36.70
2023-02-26T12:45:39.039Z,36.50
2023-02-26T12:48:17.602Z,36.20
2023-02-26T12:50:53.205Z,36.00
2023-02-26T12:53:45.331Z,35.80
2023-02-26T12:56:24.911Z,35.60
2023-02-26T12:58:58.916Z,35.50
2023-02-26T13:01:37.118Z,36.00
2023-02-26T13:04:25.419Z,36.10
2023-02-26T13:07:11.754Z,36.30
2023-02-26T13:09:46.758Z,36.90
2023-02-26T13:12:22.713Z,36.70
2023-02-26T13:14:56.879Z,36.30
2023-02-26T13:17:29.395Z,36.10
2023-02-26T13:19:58.691Z,35.90
2023-02-26T13:22:28.303Z,35.70
2023-02-26T13:24:58.664Z,35.60
2023-02-26T13:27:30.117Z,35.50
2023-02-26T13:30:06.220Z,35.40
2023-02-26T13:32:34.649Z,35.70
2023-02-26T13:35:05.068Z,35.90
2023-02-26T13:37:42.284Z,36.10
2023-02-26T13:40:24.805Z,36.80
2023-02-26T13:42:55.408Z,36.70
2023-02-26T13:45:36.154Z,36.20
2023-02-26T13:48:14.313Z,36.00
2023-02-26T13:50:54.760Z,35.80
2023-02-26T13:53:52.799Z,35.70
2023-02-26T13:56:23.481Z,35.60
2023-02-26T13:58:55.389Z,35.50
2023-02-26T14:01:28.839Z,35.40
2023-02-26T14:04:08.973Z,35.90
2023-02-26T14:06:39.986Z,36.70
2023-02-26T14:09:31.816Z,36.30
2023-02-26T14:12:01.315Z,36.80
2023-02-26T14:14:37.684Z,36.40
2023-02-26T14:17:31.895Z,36.10
2023-02-26T14:20:19.149Z,36.00
2023-02-26T14:22:49.091Z,35.70
2023-02-26T14:25:20.299Z,35.60
2023-02-26T14:27:49.038Z,35.50
2023-02-26T14:30:21.005Z,35.30
2023-02-26T14:32:50.254Z,35.50
2023-02-26T14:35:21.255Z,35.90
2023-02-26T14:37:55.157Z,36.10
2023-02-26T14:40:25.566Z,36.60
2023-02-26T14:42:54.466Z,37.00
2023-02-26T14:45:33.401Z,37.30
2023-02-26T14:48:02.176Z,37.30
2023-02-26T14:50:33.309Z,36.60
2023-02-26T14:53:14.369Z,36.40
2023-02-26T14:55:59.725Z,36.10
2023-02-26T14:58:44.574Z,35.90
2023-02-26T15:01:25.511Z,35.80
2023-02-26T15:04:14.888Z,35.60
2023-02-26T15:06:56.519Z,35.40
2023-02-26T15:09:26.628Z,35.90
2023-02-26T15:12:03.720Z,36.30
2023-02-26T15:15:00.860Z,36.40
2023-02-26T15:17:39.097Z,36.90
2023-02-26T15:20:11.833Z,36.50
2023-02-26T15:22:48.604Z,36.30
2023-02-26T15:25:26.812Z,36.00
2023-02-26T15:27:55.061Z,35.90
2023-02-26T15:30:23.996Z,35.80
2023-02-26T15:32:57.618Z,35.60
2023-02-26T15:35:25.833Z,35.50
2023-02-26T15:37:55.781Z,35.40
2023-02-26T15:40:24.528Z,35.90
2023-02-26T15:42:53.233Z,36.00
2023-02-26T15:45:25.338Z,36.40
2023-02-26T15:47:56.238Z,36.80
2023-02-26T15:50:24.751Z,36.50
2023-02-26T15:52:55.930Z,36.20
2023-02-26T15:55:24.042Z,36.10
2023-02-26T15:57:52.268Z,35.80
2023-02-26T16:00:24.727Z,35.70
2023-02-26T16:02:57.034Z,35.50
2023-02-26T16:05:26.290Z,35.40
2023-02-26T16:07:54.336Z,35.40
2023-02-26T16:10:45.392Z,35.70
2023-02-26T16:13:43.524Z,35.90
2023-02-26T16:16:23.475Z,36.30
2023-02-26T16:19:06.428Z,36.50
2023-02-26T16:21:48.215Z,36.50
2023-02-26T16:24:25.404Z,36.20
2023-02-26T16:27:04.602Z,36.00
2023-02-26T16:29:44.856Z,35.80
2023-02-26T16:32:33.897Z,35.70
2023-02-26T16:35:43.793Z,35.50
2023-02-26T16:38:23.145Z,35.30
2023-02-26T16:41:04.113Z,35.50
2023-02-26T16:43:59.094Z,36.00
2023-02-26T16:46:45.607Z,36.30
2023-02-26T16:49:18.376Z,36.50
2023-02-26T16:52:02.313Z,36.90
2023-02-26T16:54:40.935Z,37.10
2023-02-26T16:57:20.375Z,36.70
2023-02-26T16:59:59.119Z,36.50
2023-02-26T17:02:36.123Z,36.30
2023-02-26T17:05:23.370Z,36.80
2023-02-26T17:08:23.901Z,35.90
2023-02-26T17:11:18.821Z,35.80
2023-02-26T17:14:10.017Z,35.50
2023-02-26T17:16:47.948Z,35.80
2023-02-26T17:19:45.507Z,36.10
2023-02-26T17:22:25.216Z,36.50
2023-02-26T17:25:10.376Z,36.80
2023-02-26T17:27:43.604Z,36.70
2023-02-26T17:30:59.809Z,36.30
2023-02-26T17:33:35.979Z,36.20
2023-02-26T17:36:17.260Z,35.90
2023-02-26T17:39:00.279Z,35.70
2023-02-26T17:41:44.125Z,35.60
2023-02-26T17:44:20.401Z,35.50
2023-02-26T17:47:06.022Z,35.50
2023-02-26T17:49:44.240Z,36.00
2023-02-26T17:52:28.625Z,36.30
2023-02-26T17:55:08.666Z,36.70
2023-02-26T17:57:49.976Z,36.70
2023-02-26T18:00:28.960Z,36.40
2023-02-26T18:03:06.351Z,36.30
2023-02-26T18:05:45.282Z,36.00
2023-02-26T18:08:20.639Z,35.90
2023-02-26T18:10:58.320Z,35.70
2023-02-26T18:13:50.965Z,35.50
2023-02-26T18:16:35.598Z,35.40
2023-02-26T18:19:13.123Z,35.60
2023-02-26T18:21:58.033Z,36.20
2023-02-26T18:24:32.660Z,36.50
2023-02-26T18:27:12.879Z,36.70
2023-02-26T18:29:53.595Z,36.60
2023-02-26T18:32:33.707Z,36.30
2023-02-26T18:35:16.729Z,36.20
2023-02-26T18:37:49.445Z,35.90
2023-02-26T18:40:37.503Z,35.80
2023-02-26T18:43:16.533Z,35.60
2023-02-26T18:46:07.972Z,35.50
2023-02-26T18:48:56.429Z,35.40
2023-02-26T18:51:33.670Z,36.00
2023-02-26T18:54:02.458Z,36.40
2023-02-26T18:56:44.176Z,36.60
2023-02-26T18:59:20.203Z,36.90
2023-02-26T19:02:00.359Z,37.10
2023-02-26T19:05:03.424Z,37.20
2023-02-26T19:07:35.049Z,36.80
2023-02-26T19:10:09.631Z,36.40
2023-02-26T19:12:53.785Z,36.30
2023-02-26T19:15:33.614Z,36.10
2023-02-26T19:18:12.187Z,35.90
2023-02-26T19:21:02.235Z,35.80
2023-02-26T19:23:42.586Z,35.70
2023-02-26T19:26:32.268Z,36.10
2023-02-26T19:29:11.799Z,36.50
2023-02-26T19:31:57.040Z,36.90
2023-02-26T19:34:33.540Z,37.10
2023-02-26T19:37:09.591Z,36.70
2023-02-26T19:39:48.832Z,36.50
2023-02-26T19:42:22.763Z,36.10
2023-02-26T19:44:54.797Z,36.10
2023-02-26T19:47:37.696Z,36.00
2023-02-26T19:50:28.803Z,35.70
2023-02-26T19:53:06.820Z,35.70
2023-02-26T19:55:50.090Z,35.90
2023-02-26T19:58:35.083Z,36.20
2023-02-26T20:01:18.404Z,36.60
2023-02-26T20:03:56.397Z,36.90
2023-02-26T20:06:29.335Z,36.70
2023-02-26T20:09:19.625Z,36.50
2023-02-26T20:11:54.482Z,36.30
2023-02-26T20:14:36.290Z,36.70
2023-02-26T20:17:22.780Z,35.90
2023-02-26T20:20:18.881Z,35.70
2023-02-26T20:23:02.651Z,35.70
2023-02-26T20:25:55.244Z,35.50
2023-02-26T20:28:35.476Z,36.00
2023-02-26T20:31:13.783Z,36.50
2023-02-26T20:33:59.088Z,36.80
2023-02-26T20:36:54.603Z,36.90
2023-02-26T20:39:49.361Z,36.40
2023-02-26T20:42:28.343Z,36.20
2023-02-26T20:45:05.066Z,36.00
2023-02-26T20:47:47.059Z,35.90
2023-02-26T20:50:31.961Z,35.80
2023-02-26T20:53:12.390Z,35.70
2023-02-26T20:55:57.273Z,35.50
2023-02-26T20:58:42.382Z,36.00
2023-02-26T21:01:23.007Z,36.40
2023-02-26T21:04:23.948Z,36.70
2023-02-26T21:07:23.152Z,37.00
2023-02-26T21:10:01.979Z,37.30
2023-02-26T21:18:18.850Z,36.60
2023-02-26T21:20:50.480Z,36.30
2023-02-26T21:23:25.281Z,36.70
2023-02-26T21:26:02.185Z,35.90
2023-02-26T21:28:37.113Z,35.80
2023-02-26T21:31:22.194Z,35.70
2023-02-26T21:33:53.606Z,36.10
2023-02-26T21:36:33.085Z,36.50
2023-02-26T21:39:14.778Z,36.80
2023-02-26T21:41:51.498Z,37.10
2023-02-26T21:44:27.088Z,36.60
2023-02-26T21:46:58.757Z,36.50
2023-02-26T21:49:32.267Z,36.30
2023-02-26T21:52:05.948Z,36.10
2023-02-26T21:54:41.962Z,35.90
2023-02-26T21:57:17.872Z,35.80
2023-02-26T21:59:54.848Z,35.60
2023-02-26T22:02:31.156Z,35.50
2023-02-26T22:05:05.229Z,36.20
2023-02-26T22:07:40.877Z,36.60
2023-02-26T22:10:13.554Z,36.90
2023-02-26T22:12:52.895Z,37.10
2023-02-26T22:15:24.790Z,36.60
2023-02-26T22:17:53.537Z,36.50
2023-02-26T22:20:28.580Z,36.20
2023-02-26T22:23:04.565Z,36.10
2023-02-26T22:25:33.522Z,35.80
2023-02-26T22:28:12.653Z,35.80
2023-02-26T22:30:48.579Z,35.50
2023-02-26T22:33:25.314Z,35.50
2023-02-26T22:36:10.975Z,36.20
2023-02-26T22:38:59.385Z,36.60
2023-02-26T22:41:39.905Z,36.80
2023-02-26T22:44:18.302Z,37.00
2023-02-26T22:46:56.013Z,36.50
2023-02-26T22:49:29.604Z,36.40
2023-02-26T22:52:05.563Z,36.20
2023-02-26T22:54:46.662Z,36.00
2023-02-26T22:57:21.480Z,35.80
2023-02-26T22:59:54.252Z,35.80
2023-02-26T23:02:33.635Z,35.60
2023-02-26T23:05:06.577Z,35.80
2023-02-26T23:07:37.609Z,36.40
2023-02-26T23:10:21.237Z,36.60
2023-02-26T23:12:54.127Z,36.80
2023-02-26T23:15:26.702Z,37.10
2023-02-26T23:18:00.817Z,37.30
2023-02-26T23:20:32.400Z,37.20
2023-02-26T23:23:03.917Z,36.80
2023-02-26T23:25:37.433Z,36.50
2023-02-26T23:28:09.499Z,36.40
2023-02-26T23:30:44.955Z,36.10
2023-02-26T23:33:17.501Z,36.00
2023-02-26T23:35:53.845Z,35.80
2023-02-26T23:38:34.171Z,35.80
2023-02-26T23:41:06.824Z,36.00
2023-02-26T23:43:41.923Z,36.60
2023-02-26T23:46:17.948Z,36.80
2023-02-26T23:48:58.223Z,37.00
2023-02-26T23:51:34.290Z,37.00
2023-02-26T23:54:11.339Z,36.60
2023-02-26T23:56:47.609Z,36.40
2023-02-26T23:59:32.414Z,36.30
